sensor_id;sensor_type;location;lat;lon;timestamp;temperature;humidity
35127;DHT22;21300;52.006;5.798;2023-03-01T00:01:18;2.00;99.90
35127;DHT22;21300;52.006;5.798;2023-03-01T00:03:44;2.00;99.90
35127;DHT22;21300;52.006;5.798;2023-03-01T00:06:11;2.00;99.90
35127;DHT22;21300;52.006;5.798;2023-03-01T00:08:37;1.90;99.90
35127;DHT22;21300;52.006;5.798;2023-03-01T00:13:30;1.90;99.90
35127;DHT22;21300;52.006;5.798;2023-03-01T00:15:55;1.90;99.90
35127;DHT22;21300;52.006;5.798;2023-03-01T00:18:21;1.90;99.90
35127;DHT22;21300;52.006;5.798;2023-03-01T00:20:54;1.90;99.90
35127;DHT22;21300;52.006;5.798;2023-03-01T00:23:21;1.90;99.90
35127;DHT22;21300;52.006;5.798;2023-03-01T00:25:47;1.90;99.90
35127;DHT22;21300;52.006;5.798;2023-03-01T00:28:13;1.80;99.90
35127;DHT22;21300;52.006;5.798;2023-03-01T00:30:39;1.80;99.90
35127;DHT22;21300;52.006;5.798;2023-03-01T00:33:04;1.80;99.90
35127;DHT22;21300;52.006;5.798;2023-03-01T00:35:32;1.80;99.90
35127;DHT22;21300;52.006;5.798;2023-03-01T00:37:57;1.80;99.90
35127;DHT22;21300;52.006;5.798;2023-03-01T00:40:24;1.80;99.90
35127;DHT22;21300;52.006;5.798;2023-03-01T00:42:50;1.70;99.90
35127;DHT22;21300;52.006;5.798;2023-03-01T00:45:16;1.70;99.90
35127;DHT22;21300;52.006;5.798;2023-03-01T00:47:42;1.70;99.90
35127;DHT22;21300;52.006;5.798;2023-03-01T00:50:08;1.70;99.90
35127;DHT22;21300;52.006;5.798;2023-03-01T00:52:34;1.70;99.90
35127;DHT22;21300;52.006;5.798;2023-03-01T00:55:00;1.70;99.90
35127;DHT22;21300;52.006;5.798;2023-03-01T00:57:25;1.60;99.90
35127;DHT22;21300;52.006;5.798;2023-03-01T00:59:51;1.60;99.90
35127;DHT22;21300;52.006;5.798;2023-03-01T01:02:18;1.60;99.90
35127;DHT22;21300;52.006;5.798;2023-03-01T01:04:44;1.60;99.90
35127;DHT22;21300;52.006;5.798;2023-03-01T01:07:10;1.50;99.90
35127;DHT22;21300;52.006;5.798;2023-03-01T01:09:35;1.60;99.90
35127;DHT22;21300;52.006;5.798;2023-03-01T01:12:02;1.60;99.90
35127;DHT22;21300;52.006;5.798;2023-03-01T01:14:28;1.50;99.90
35127;DHT22;21300;52.006;5.798;2023-03-01T01:16:54;1.50;99.90
35127;DHT22;21300;52.006;5.798;2023-03-01T01:19:20;1.50;99.90
35127;DHT22;21300;52.006;5.798;2023-03-01T01:21:46;1.50;99.90
35127;DHT22;21300;52.006;5.798;2023-03-01T01:24:13;1.50;99.90
35127;DHT22;21300;52.006;5.798;2023-03-01T01:26:39;1.50;99.90
35127;DHT22;21300;52.006;5.798;2023-03-01T01:29:05;1.50;99.90
35127;DHT22;21300;52.006;5.798;2023-03-01T01:31:33;1.40;99.90
35127;DHT22;21300;52.006;5.798;2023-03-01T01:34:00;1.40;99.90
35127;DHT22;21300;52.006;5.798;2023-03-01T01:36:26;1.40;99.90
35127;DHT22;21300;52.006;5.798;2023-03-01T01:38:52;1.40;99.90
35127;DHT22;21300;52.006;5.798;2023-03-01T01:41:19;1.40;99.90
35127;DHT22;21300;52.006;5.798;2023-03-01T01:44:09;1.40;99.90
35127;DHT22;21300;52.006;5.798;2023-03-01T01:46:33;1.30;99.90
35127;DHT22;21300;52.006;5.798;2023-03-01T01:51:53;1.30;99.90
35127;DHT22;21300;52.006;5.798;2023-03-01T01:54:25;1.30;99.90
35127;DHT22;21300;52.006;5.798;2023-03-01T01:57:00;1.30;99.90
35127;DHT22;21300;52.006;5.798;2023-03-01T01:59:28;1.30;99.90
35127;DHT22;21300;52.006;5.798;2023-03-01T02:01:59;1.30;99.90
35127;DHT22;21300;52.006;5.798;2023-03-01T02:04:25;1.30;99.90
35127;DHT22;21300;52.006;5.798;2023-03-01T02:06:59;1.30;99.90
35127;DHT22;21300;52.006;5.798;2023-03-01T02:09:26;1.30;99.90
35127;DHT22;21300;52.006;5.798;2023-03-01T02:11:53;1.20;99.90
35127;DHT22;21300;52.006;5.798;2023-03-01T02:14:19;1.20;99.90
35127;DHT22;21300;52.006;5.798;2023-03-01T02:16:45;1.20;99.90
35127;DHT22;21300;52.006;5.798;2023-03-01T02:19:27;1.20;99.90
35127;DHT22;21300;52.006;5.798;2023-03-01T02:24:57;1.20;99.90
35127;DHT22;21300;52.006;5.798;2023-03-01T02:27:36;1.20;99.90
35127;DHT22;21300;52.006;5.798;2023-03-01T02:30:04;1.20;99.90
35127;DHT22;21300;52.006;5.798;2023-03-01T02:32:31;1.20;99.90
35127;DHT22;21300;52.006;5.798;2023-03-01T02:34:57;1.20;99.90
35127;DHT22;21300;52.006;5.798;2023-03-01T02:37:24;1.10;99.90
35127;DHT22;21300;52.006;5.798;2023-03-01T02:39:59;1.10;99.90
35127;DHT22;21300;52.006;5.798;2023-03-01T02:42:33;1.10;99.90
35127;DHT22;21300;52.006;5.798;2023-03-01T02:45:00;1.10;99.90
35127;DHT22;21300;52.006;5.798;2023-03-01T02:47:26;1.10;99.90
35127;DHT22;21300;52.006;5.798;2023-03-01T02:49:52;1.10;99.90
35127;DHT22;21300;52.006;5.798;2023-03-01T02:52:52;1.10;99.90
35127;DHT22;21300;52.006;5.798;2023-03-01T02:55:20;1.10;99.90
35127;DHT22;21300;52.006;5.798;2023-03-01T02:57:48;1.00;99.90
35127;DHT22;21300;52.006;5.798;2023-03-01T03:00:26;1.00;99.90
35127;DHT22;21300;52.006;5.798;2023-03-01T03:02:54;1.00;99.90
35127;DHT22;21300;52.006;5.798;2023-03-01T03:05:30;1.00;99.90
35127;DHT22;21300;52.006;5.798;2023-03-01T03:07:57;1.00;99.90
35127;DHT22;21300;52.006;5.798;2023-03-01T03:10:30;0.90;99.90
35127;DHT22;21300;52.006;5.798;2023-03-01T03:13:17;0.90;99.90
35127;DHT22;21300;52.006;5.798;2023-03-01T03:15:43;0.90;99.90
35127;DHT22;21300;52.006;5.798;2023-03-01T03:18:12;0.90;99.90
35127;DHT22;21300;52.006;5.798;2023-03-01T03:20:40;0.90;99.90
35127;DHT22;21300;52.006;5.798;2023-03-01T03:23:06;0.90;99.90
35127;DHT22;21300;52.006;5.798;2023-03-01T03:28:16;0.80;99.90
35127;DHT22;21300;52.006;5.798;2023-03-01T03:30:42;0.80;99.90
35127;DHT22;21300;52.006;5.798;2023-03-01T03:33:10;0.80;99.90
35127;DHT22;21300;52.006;5.798;2023-03-01T03:35:42;0.80;99.90
35127;DHT22;21300;52.006;5.798;2023-03-01T03:38:10;0.80;99.90
35127;DHT22;21300;52.006;5.798;2023-03-01T03:43:38;0.80;99.90
35127;DHT22;21300;52.006;5.798;2023-03-01T03:46:04;0.80;99.90
35127;DHT22;21300;52.006;5.798;2023-03-01T03:48:43;0.80;99.90
35127;DHT22;21300;52.006;5.798;2023-03-01T03:51:14;0.70;99.90
35127;DHT22;21300;52.006;5.798;2023-03-01T03:53:41;0.70;99.90
35127;DHT22;21300;52.006;5.798;2023-03-01T03:56:07;0.70;99.90
35127;DHT22;21300;52.006;5.798;2023-03-01T03:58:33;0.70;99.90
35127;DHT22;21300;52.006;5.798;2023-03-01T04:00:59;0.70;99.90
35127;DHT22;21300;52.006;5.798;2023-03-01T04:03:27;0.60;99.90
35127;DHT22;21300;52.006;5.798;2023-03-01T04:05:53;0.60;99.90
35127;DHT22;21300;52.006;5.798;2023-03-01T04:08:20;0.60;99.90
35127;DHT22;21300;52.006;5.798;2023-03-01T04:10:48;0.60;99.90
35127;DHT22;21300;52.006;5.798;2023-03-01T04:13:17;0.60;99.90
35127;DHT22;21300;52.006;5.798;2023-03-01T04:15:45;0.60;99.90
35127;DHT22;21300;52.006;5.798;2023-03-01T04:18:15;0.60;99.90
35127;DHT22;21300;52.006;5.798;2023-03-01T04:20:41;0.60;99.90
35127;DHT22;21300;52.006;5.798;2023-03-01T04:23:26;0.60;99.90
35127;DHT22;21300;52.006;5.798;2023-03-01T04:25:57;0.50;99.90
35127;DHT22;21300;52.006;5.798;2023-03-01T04:28:31;0.50;99.90
35127;DHT22;21300;52.006;5.798;2023-03-01T04:31:23;0.50;99.90
35127;DHT22;21300;52.006;5.798;2023-03-01T04:33:57;0.50;99.90
35127;DHT22;21300;52.006;5.798;2023-03-01T04:36:28;0.50;99.90
35127;DHT22;21300;52.006;5.798;2023-03-01T04:38:54;0.50;99.90
35127;DHT22;21300;52.006;5.798;2023-03-01T04:41:22;0.50;99.90
35127;DHT22;21300;52.006;5.798;2023-03-01T04:43:49;0.50;99.90
35127;DHT22;21300;52.006;5.798;2023-03-01T04:46:17;0.50;99.90
35127;DHT22;21300;52.006;5.798;2023-03-01T04:48:44;0.50;99.90
35127;DHT22;21300;52.006;5.798;2023-03-01T04:51:11;0.50;99.90
35127;DHT22;21300;52.006;5.798;2023-03-01T04:53:40;0.40;99.90
35127;DHT22;21300;52.006;5.798;2023-03-01T04:56:06;0.40;99.90
35127;DHT22;21300;52.006;5.798;2023-03-01T04:58:32;0.40;99.90
35127;DHT22;21300;52.006;5.798;2023-03-01T05:00:58;0.40;99.90
35127;DHT22;21300;52.006;5.798;2023-03-01T05:03:23;0.40;99.90
35127;DHT22;21300;52.006;5.798;2023-03-01T05:05:51;0.40;99.90
35127;DHT22;21300;52.006;5.798;2023-03-01T05:08:17;0.40;99.90
35127;DHT22;21300;52.006;5.798;2023-03-01T05:10:49;0.40;99.90
35127;DHT22;21300;52.006;5.798;2023-03-01T05:13:16;0.30;99.90
35127;DHT22;21300;52.006;5.798;2023-03-01T05:15:47;0.30;99.90
35127;DHT22;21300;52.006;5.798;2023-03-01T05:18:13;0.30;99.90
35127;DHT22;21300;52.006;5.798;2023-03-01T05:20:39;0.30;99.90
35127;DHT22;21300;52.006;5.798;2023-03-01T05:23:05;0.30;99.90
35127;DHT22;21300;52.006;5.798;2023-03-01T05:25:32;0.30;99.90
35127;DHT22;21300;52.006;5.798;2023-03-01T05:28:02;0.30;99.90
35127;DHT22;21300;52.006;5.798;2023-03-01T05:30:32;0.30;99.90
35127;DHT22;21300;52.006;5.798;2023-03-01T05:32:58;0.30;99.90
35127;DHT22;21300;52.006;5.798;2023-03-01T05:35:24;0.30;99.90
35127;DHT22;21300;52.006;5.798;2023-03-01T05:37:51;0.30;99.90
35127;DHT22;21300;52.006;5.798;2023-03-01T05:40:19;0.20;99.90
35127;DHT22;21300;52.006;5.798;2023-03-01T05:45:17;0.20;99.90
35127;DHT22;21300;52.006;5.798;2023-03-01T05:47:44;0.20;99.90
35127;DHT22;21300;52.006;5.798;2023-03-01T05:50:29;0.20;99.90
35127;DHT22;21300;52.006;5.798;2023-03-01T05:53:00;0.20;99.90
35127;DHT22;21300;52.006;5.798;2023-03-01T05:55:26;0.20;99.90
35127;DHT22;21300;52.006;5.798;2023-03-01T05:57:52;0.20;99.90
35127;DHT22;21300;52.006;5.798;2023-03-01T06:00:19;0.20;99.90
35127;DHT22;21300;52.006;5.798;2023-03-01T06:02:45;0.20;99.90
35127;DHT22;21300;52.006;5.798;2023-03-01T06:05:12;0.10;99.90
35127;DHT22;21300;52.006;5.798;2023-03-01T06:07:38;0.10;99.90
35127;DHT22;21300;52.006;5.798;2023-03-01T06:10:05;0.10;99.90
35127;DHT22;21300;52.006;5.798;2023-03-01T06:12:34;0.10;99.90
35127;DHT22;21300;52.006;5.798;2023-03-01T06:15:00;0.10;99.90
35127;DHT22;21300;52.006;5.798;2023-03-01T06:17:29;0.10;99.90
35127;DHT22;21300;52.006;5.798;2023-03-01T06:19:54;0.10;99.90
35127;DHT22;21300;52.006;5.798;2023-03-01T06:24:46;-0.40;99.90
35127;DHT22;21300;52.006;5.798;2023-03-01T06:27:12;-0.30;99.90
35127;DHT22;21300;52.006;5.798;2023-03-01T06:29:37;-0.30;99.90
35127;DHT22;21300;52.006;5.798;2023-03-01T06:32:03;-0.20;99.90
35127;DHT22;21300;52.006;5.798;2023-03-01T06:34:29;-0.20;99.90
35127;DHT22;21300;52.006;5.798;2023-03-01T06:36:55;-0.10;99.90
35127;DHT22;21300;52.006;5.798;2023-03-01T06:39:20;-0.20;99.90
35127;DHT22;21300;52.006;5.798;2023-03-01T06:41:46;-0.20;99.90
35127;DHT22;21300;52.006;5.798;2023-03-01T06:44:11;-0.10;99.90
35127;DHT22;21300;52.006;5.798;2023-03-01T06:46:38;-0.10;99.90
35127;DHT22;21300;52.006;5.798;2023-03-01T06:49:04;-0.20;99.90
35127;DHT22;21300;52.006;5.798;2023-03-01T06:51:33;-0.10;99.90
35127;DHT22;21300;52.006;5.798;2023-03-01T06:53:58;-0.10;99.90
35127;DHT22;21300;52.006;5.798;2023-03-01T06:56:24;-0.10;99.90
35127;DHT22;21300;52.006;5.798;2023-03-01T06:58:49;-0.10;99.90
35127;DHT22;21300;52.006;5.798;2023-03-01T07:01:15;-0.10;99.90
35127;DHT22;21300;52.006;5.798;2023-03-01T07:03:41;-0.10;99.90
35127;DHT22;21300;52.006;5.798;2023-03-01T07:06:09;-0.10;99.90
35127;DHT22;21300;52.006;5.798;2023-03-01T11:16:01;2.10;99.90
35127;DHT22;21300;52.006;5.798;2023-03-01T11:18:29;2.40;99.90
35127;DHT22;21300;52.006;5.798;2023-03-01T11:20:56;2.60;99.90
35127;DHT22;21300;52.006;5.798;2023-03-01T11:23:24;2.60;99.90
35127;DHT22;21300;52.006;5.798;2023-03-01T11:25:55;2.70;99.90
35127;DHT22;21300;52.006;5.798;2023-03-01T11:28:22;2.70;99.90
35127;DHT22;21300;52.006;5.798;2023-03-01T11:30:58;2.70;99.90
35127;DHT22;21300;52.006;5.798;2023-03-01T11:33:40;2.70;99.90
35127;DHT22;21300;52.006;5.798;2023-03-01T11:36:19;2.80;99.90
35127;DHT22;21300;52.006;5.798;2023-03-01T11:38:50;2.80;99.90
35127;DHT22;21300;52.006;5.798;2023-03-01T11:41:21;2.80;99.90
35127;DHT22;21300;52.006;5.798;2023-03-01T11:44:01;2.90;99.90
35127;DHT22;21300;52.006;5.798;2023-03-01T11:46:45;2.90;99.90
35127;DHT22;21300;52.006;5.798;2023-03-01T11:54:34;3.30;99.00
35127;DHT22;21300;52.006;5.798;2023-03-01T12:23:12;3.40;99.90
35127;DHT22;21300;52.006;5.798;2023-03-01T12:26:10;3.40;99.90
35127;DHT22;21300;52.006;5.798;2023-03-01T12:28:49;3.50;99.90
35127;DHT22;21300;52.006;5.798;2023-03-01T12:31:32;3.50;99.90
35127;DHT22;21300;52.006;5.798;2023-03-01T12:50:52;4.00;99.90
35127;DHT22;21300;52.006;5.798;2023-03-01T12:53:24;4.00;99.90
35127;DHT22;21300;52.006;5.798;2023-03-01T12:55:52;4.00;99.90
35127;DHT22;21300;52.006;5.798;2023-03-01T13:04:21;4.00;99.90
35127;DHT22;21300;52.006;5.798;2023-03-01T13:07:13;4.00;99.90
35127;DHT22;21300;52.006;5.798;2023-03-01T13:12:43;4.10;99.90
35127;DHT22;21300;52.006;5.798;2023-03-01T13:15:36;4.10;99.90
35127;DHT22;21300;52.006;5.798;2023-03-01T13:31:01;4.20;99.90
35127;DHT22;21300;52.006;5.798;2023-03-01T13:35:57;4.20;99.90
35127;DHT22;21300;52.006;5.798;2023-03-01T13:38:46;4.20;99.90
35127;DHT22;21300;52.006;5.798;2023-03-01T13:41:14;4.30;99.90
35127;DHT22;21300;52.006;5.798;2023-03-01T13:43:44;4.30;99.90
35127;DHT22;21300;52.006;5.798;2023-03-01T13:46:20;4.30;99.90
35127;DHT22;21300;52.006;5.798;2023-03-01T13:48:50;4.30;99.90
35127;DHT22;21300;52.006;5.798;2023-03-01T13:51:23;4.30;99.90
35127;DHT22;21300;52.006;5.798;2023-03-01T13:53:50;4.30;99.90
35127;DHT22;21300;52.006;5.798;2023-03-01T13:56:25;4.30;99.90
35127;DHT22;21300;52.006;5.798;2023-03-01T14:01:26;4.30;99.90
35127;DHT22;21300;52.006;5.798;2023-03-01T14:03:52;4.40;99.90
35127;DHT22;21300;52.006;5.798;2023-03-01T14:06:24;4.50;99.90
35127;DHT22;21300;52.006;5.798;2023-03-01T14:08:52;4.60;99.90
35127;DHT22;21300;52.006;5.798;2023-03-01T14:16:54;4.50;99.90
35127;DHT22;21300;52.006;5.798;2023-03-01T14:19:26;4.40;99.90
35127;DHT22;21300;52.006;5.798;2023-03-01T14:22:22;4.40;99.90
35127;DHT22;21300;52.006;5.798;2023-03-01T14:24:52;4.40;99.90
35127;DHT22;21300;52.006;5.798;2023-03-01T14:27:19;4.40;99.90
35127;DHT22;21300;52.006;5.798;2023-03-01T14:29:58;4.40;99.90
35127;DHT22;21300;52.006;5.798;2023-03-01T14:32:29;4.40;99.90
35127;DHT22;21300;52.006;5.798;2023-03-01T14:34:56;4.40;99.90
35127;DHT22;21300;52.006;5.798;2023-03-01T14:37:33;4.40;99.90
35127;DHT22;21300;52.006;5.798;2023-03-01T14:40:01;4.40;99.90
35127;DHT22;21300;52.006;5.798;2023-03-01T14:42:31;4.40;99.90
35127;DHT22;21300;52.006;5.798;2023-03-01T14:44:57;4.40;99.90
35127;DHT22;21300;52.006;5.798;2023-03-01T14:47:27;4.40;99.90
35127;DHT22;21300;52.006;5.798;2023-03-01T14:49:58;4.60;98.50
35127;DHT22;21300;52.006;5.798;2023-03-01T14:52:44;4.70;99.00
35127;DHT22;21300;52.006;5.798;2023-03-01T14:55:19;4.70;99.90
35127;DHT22;21300;52.006;5.798;2023-03-01T14:57:49;4.60;99.90
35127;DHT22;21300;52.006;5.798;2023-03-01T15:00:24;4.60;99.90
35127;DHT22;21300;52.006;5.798;2023-03-01T15:02:52;4.50;99.90
35127;DHT22;21300;52.006;5.798;2023-03-01T15:05:24;4.50;99.90
35127;DHT22;21300;52.006;5.798;2023-03-01T15:07:51;4.50;99.90
35127;DHT22;21300;52.006;5.798;2023-03-01T15:10:27;4.50;99.90
35127;DHT22;21300;52.006;5.798;2023-03-01T15:12:53;4.50;99.90
35127;DHT22;21300;52.006;5.798;2023-03-01T15:15:36;4.50;99.90
35127;DHT22;21300;52.006;5.798;2023-03-01T15:20:50;4.50;99.90
35127;DHT22;21300;52.006;5.798;2023-03-01T15:23:25;4.50;99.90
35127;DHT22;21300;52.006;5.798;2023-03-01T15:25:53;4.50;99.90
35127;DHT22;21300;52.006;5.798;2023-03-01T15:28:24;4.50;99.90
35127;DHT22;21300;52.006;5.798;2023-03-01T15:33:42;4.60;99.90
35127;DHT22;21300;52.006;5.798;2023-03-01T15:38:58;4.60;99.90
35127;DHT22;21300;52.006;5.798;2023-03-01T15:41:37;4.60;99.90
35127;DHT22;21300;52.006;5.798;2023-03-01T15:44:28;4.60;99.90
35127;DHT22;21300;52.006;5.798;2023-03-01T15:46:54;4.60;99.90
35127;DHT22;21300;52.006;5.798;2023-03-01T15:52:02;4.60;99.90
35127;DHT22;21300;52.006;5.798;2023-03-01T15:54:28;4.60;99.90
35127;DHT22;21300;52.006;5.798;2023-03-01T15:56:54;4.60;99.90
35127;DHT22;21300;52.006;5.798;2023-03-01T15:59:20;4.60;99.90
35127;DHT22;21300;52.006;5.798;2023-03-01T16:01:47;4.60;99.90
35127;DHT22;21300;52.006;5.798;2023-03-01T16:04:16;4.60;99.90
35127;DHT22;21300;52.006;5.798;2023-03-01T16:06:53;4.60;99.90
35127;DHT22;21300;52.006;5.798;2023-03-01T16:09:23;4.60;99.90
35127;DHT22;21300;52.006;5.798;2023-03-01T16:11:51;4.60;99.90
35127;DHT22;21300;52.006;5.798;2023-03-01T16:14:17;4.60;99.90
35127;DHT22;21300;52.006;5.798;2023-03-01T16:16:44;4.50;99.90
35127;DHT22;21300;52.006;5.798;2023-03-01T16:19:10;4.60;99.90
35127;DHT22;21300;52.006;5.798;2023-03-01T16:21:36;4.60;99.90
35127;DHT22;21300;52.006;5.798;2023-03-01T16:24:02;4.60;99.90
35127;DHT22;21300;52.006;5.798;2023-03-01T16:26:28;4.60;99.90
35127;DHT22;21300;52.006;5.798;2023-03-01T16:28:55;4.60;99.90
35127;DHT22;21300;52.006;5.798;2023-03-01T16:31:22;4.60;99.90
35127;DHT22;21300;52.006;5.798;2023-03-01T16:33:48;4.60;99.90
35127;DHT22;21300;52.006;5.798;2023-03-01T16:36:17;4.60;99.90
35127;DHT22;21300;52.006;5.798;2023-03-01T16:38:43;4.60;99.90
35127;DHT22;21300;52.006;5.798;2023-03-01T16:41:13;4.60;99.90
35127;DHT22;21300;52.006;5.798;2023-03-01T16:43:38;4.60;99.90
35127;DHT22;21300;52.006;5.798;2023-03-01T16:46:16;4.60;99.90
35127;DHT22;21300;52.006;5.798;2023-03-01T16:48:42;4.60;99.90
35127;DHT22;21300;52.006;5.798;2023-03-01T16:51:08;4.60;99.90
35127;DHT22;21300;52.006;5.798;2023-03-01T16:53:35;4.60;99.90
35127;DHT22;21300;52.006;5.798;2023-03-01T16:56:09;4.60;99.90
35127;DHT22;21300;52.006;5.798;2023-03-01T16:58:36;4.60;99.90
35127;DHT22;21300;52.006;5.798;2023-03-01T17:01:07;4.60;99.90
35127;DHT22;21300;52.006;5.798;2023-03-01T17:03:35;4.60;99.90
35127;DHT22;21300;52.006;5.798;2023-03-01T17:06:09;4.60;99.90
35127;DHT22;21300;52.006;5.798;2023-03-01T17:08:35;4.60;99.90
35127;DHT22;21300;52.006;5.798;2023-03-01T17:11:06;4.60;99.90
35127;DHT22;21300;52.006;5.798;2023-03-01T17:13:33;4.50;99.90
35127;DHT22;21300;52.006;5.798;2023-03-01T17:15:59;4.50;99.90
35127;DHT22;21300;52.006;5.798;2023-03-01T17:18:25;4.50;99.90
35127;DHT22;21300;52.006;5.798;2023-03-01T17:20:50;4.50;99.90
35127;DHT22;21300;52.006;5.798;2023-03-01T17:23:16;4.50;99.90
35127;DHT22;21300;52.006;5.798;2023-03-01T17:25:44;4.50;99.90
35127;DHT22;21300;52.006;5.798;2023-03-01T17:28:11;4.50;99.90
35127;DHT22;21300;52.006;5.798;2023-03-01T17:30:41;4.50;99.90
35127;DHT22;21300;52.006;5.798;2023-03-01T17:33:06;4.50;99.90
35127;DHT22;21300;52.006;5.798;2023-03-01T17:35:32;4.50;99.90
35127;DHT22;21300;52.006;5.798;2023-03-01T17:38:01;4.50;99.90
35127;DHT22;21300;52.006;5.798;2023-03-01T17:40:27;4.40;99.90
35127;DHT22;21300;52.006;5.798;2023-03-01T17:42:52;4.30;99.90
35127;DHT22;21300;52.006;5.798;2023-03-01T17:45:18;4.30;99.90
35127;DHT22;21300;52.006;5.798;2023-03-01T17:47:44;4.30;99.90
35127;DHT22;21300;52.006;5.798;2023-03-01T17:50:10;4.30;99.90
35127;DHT22;21300;52.006;5.798;2023-03-01T17:52:36;4.30;99.90
35127;DHT22;21300;52.006;5.798;2023-03-01T17:55:02;4.30;99.90
35127;DHT22;21300;52.006;5.798;2023-03-01T17:57:28;4.30;99.90
35127;DHT22;21300;52.006;5.798;2023-03-01T17:59:54;4.30;99.90
35127;DHT22;21300;52.006;5.798;2023-03-01T18:02:19;4.30;99.90
35127;DHT22;21300;52.006;5.798;2023-03-01T18:04:45;4.30;99.90
35127;DHT22;21300;52.006;5.798;2023-03-01T18:07:11;4.20;99.90
35127;DHT22;21300;52.006;5.798;2023-03-01T18:09:36;4.20;99.90
35127;DHT22;21300;52.006;5.798;2023-03-01T18:12:02;4.20;99.90
35127;DHT22;21300;52.006;5.798;2023-03-01T18:14:27;4.20;99.90
35127;DHT22;21300;52.006;5.798;2023-03-01T18:16:59;4.20;99.90
35127;DHT22;21300;52.006;5.798;2023-03-01T18:19:26;4.20;99.90
35127;DHT22;21300;52.006;5.798;2023-03-01T18:21:53;4.20;99.90
35127;DHT22;21300;52.006;5.798;2023-03-01T18:24:18;4.10;99.90
35127;DHT22;21300;52.006;5.798;2023-03-01T18:26:44;4.10;99.90
35127;DHT22;21300;52.006;5.798;2023-03-01T18:29:09;4.10;99.90
35127;DHT22;21300;52.006;5.798;2023-03-01T18:31:35;4.10;99.90
35127;DHT22;21300;52.006;5.798;2023-03-01T18:34:01;4.10;99.90
35127;DHT22;21300;52.006;5.798;2023-03-01T18:36:32;4.10;99.90
35127;DHT22;21300;52.006;5.798;2023-03-01T18:39:00;4.10;99.90
35127;DHT22;21300;52.006;5.798;2023-03-01T18:44:10;4.00;99.90
35127;DHT22;21300;52.006;5.798;2023-03-01T18:46:36;4.00;99.90
35127;DHT22;21300;52.006;5.798;2023-03-01T18:49:04;4.00;99.90
35127;DHT22;21300;52.006;5.798;2023-03-01T18:51:30;4.00;99.90
35127;DHT22;21300;52.006;5.798;2023-03-01T18:53:57;4.00;99.90
35127;DHT22;21300;52.006;5.798;2023-03-01T18:56:27;3.90;99.90
35127;DHT22;21300;52.006;5.798;2023-03-01T19:01:37;3.90;99.90
35127;DHT22;21300;52.006;5.798;2023-03-01T19:04:03;3.90;99.90
35127;DHT22;21300;52.006;5.798;2023-03-01T19:06:31;3.90;99.90
35127;DHT22;21300;52.006;5.798;2023-03-01T19:08:58;3.80;99.90
35127;DHT22;21300;52.006;5.798;2023-03-01T19:11:25;3.80;99.90
35127;DHT22;21300;52.006;5.798;2023-03-01T19:13:55;3.80;99.90
35127;DHT22;21300;52.006;5.798;2023-03-01T19:16:24;3.80;99.90
35127;DHT22;21300;52.006;5.798;2023-03-01T19:18:55;3.80;99.90
35127;DHT22;21300;52.006;5.798;2023-03-01T19:21:22;3.70;99.90
35127;DHT22;21300;52.006;5.798;2023-03-01T19:23:49;3.70;99.90
35127;DHT22;21300;52.006;5.798;2023-03-01T19:26:17;3.70;99.90
35127;DHT22;21300;52.006;5.798;2023-03-01T19:28:43;3.70;99.90
35127;DHT22;21300;52.006;5.798;2023-03-01T19:31:12;3.70;99.90
35127;DHT22;21300;52.006;5.798;2023-03-01T19:33:38;3.60;99.90
35127;DHT22;21300;52.006;5.798;2023-03-01T19:36:05;3.70;99.90
35127;DHT22;21300;52.006;5.798;2023-03-01T19:38:31;3.60;99.90
35127;DHT22;21300;52.006;5.798;2023-03-01T19:40:57;3.60;99.90
35127;DHT22;21300;52.006;5.798;2023-03-01T19:43:23;3.60;99.90
35127;DHT22;21300;52.006;5.798;2023-03-01T19:45:53;3.50;99.90
35127;DHT22;21300;52.006;5.798;2023-03-01T19:51:05;3.50;99.90
35127;DHT22;21300;52.006;5.798;2023-03-01T19:53:30;3.50;99.90
35127;DHT22;21300;52.006;5.798;2023-03-01T19:55:57;3.50;99.90
35127;DHT22;21300;52.006;5.798;2023-03-01T19:58:24;3.40;99.90
35127;DHT22;21300;52.006;5.798;2023-03-01T20:00:50;3.40;99.90
35127;DHT22;21300;52.006;5.798;2023-03-01T20:05:51;3.20;98.40
35127;DHT22;21300;52.006;5.798;2023-03-01T20:08:17;3.10;99.20
35127;DHT22;21300;52.006;5.798;2023-03-01T20:10:43;3.10;99.30
35127;DHT22;21300;52.006;5.798;2023-03-01T20:13:08;3.10;99.20
35127;DHT22;21300;52.006;5.798;2023-03-01T20:15:34;3.10;99.10
35127;DHT22;21300;52.006;5.798;2023-03-01T20:17:59;3.10;99.00
35127;DHT22;21300;52.006;5.798;2023-03-01T20:20:25;3.10;99.00
35127;DHT22;21300;52.006;5.798;2023-03-01T20:22:51;3.10;98.90
35127;DHT22;21300;52.006;5.798;2023-03-01T20:25:16;3.00;98.90
35127;DHT22;21300;52.006;5.798;2023-03-01T20:27:42;3.00;98.90
35127;DHT22;21300;52.006;5.798;2023-03-01T20:30:12;3.00;98.90
35127;DHT22;21300;52.006;5.798;2023-03-01T20:32:38;3.00;98.90
35127;DHT22;21300;52.006;5.798;2023-03-01T20:35:04;3.00;98.90
35127;DHT22;21300;52.006;5.798;2023-03-01T20:37:30;3.00;98.90
35127;DHT22;21300;52.006;5.798;2023-03-01T20:39:56;2.90;98.90
35127;DHT22;21300;52.006;5.798;2023-03-01T20:42:21;2.90;98.90
35127;DHT22;21300;52.006;5.798;2023-03-01T20:44:47;2.90;98.90
35127;DHT22;21300;52.006;5.798;2023-03-01T20:47:13;2.90;99.00
35127;DHT22;21300;52.006;5.798;2023-03-01T20:49:38;2.90;99.00
35127;DHT22;21300;52.006;5.798;2023-03-01T20:52:04;2.90;99.00
35127;DHT22;21300;52.006;5.798;2023-03-01T20:54:30;2.80;99.00
35127;DHT22;21300;52.006;5.798;2023-03-01T20:56:56;2.80;99.00
35127;DHT22;21300;52.006;5.798;2023-03-01T20:59:21;2.80;99.00
35127;DHT22;21300;52.006;5.798;2023-03-01T21:01:48;2.80;99.10
35127;DHT22;21300;52.006;5.798;2023-03-01T21:04:14;2.80;99.10
35127;DHT22;21300;52.006;5.798;2023-03-01T21:06:42;2.80;99.10
35127;DHT22;21300;52.006;5.798;2023-03-01T21:09:08;2.80;99.00
35127;DHT22;21300;52.006;5.798;2023-03-01T21:11:34;2.70;99.00
35127;DHT22;21300;52.006;5.798;2023-03-01T21:14:00;2.70;99.10
35127;DHT22;21300;52.006;5.798;2023-03-01T21:16:26;2.70;99.10
35127;DHT22;21300;52.006;5.798;2023-03-01T21:18:52;2.70;99.10
35127;DHT22;21300;52.006;5.798;2023-03-01T21:21:20;2.60;99.10
35127;DHT22;21300;52.006;5.798;2023-03-01T21:23:46;2.60;99.20
35127;DHT22;21300;52.006;5.798;2023-03-01T21:26:17;2.60;99.10
35127;DHT22;21300;52.006;5.798;2023-03-01T21:28:44;2.60;99.20
35127;DHT22;21300;52.006;5.798;2023-03-01T21:31:20;2.60;99.10
35127;DHT22;21300;52.006;5.798;2023-03-01T21:33:52;2.60;99.20
35127;DHT22;21300;52.006;5.798;2023-03-01T21:36:18;2.60;99.20
35127;DHT22;21300;52.006;5.798;2023-03-01T21:38:46;2.50;99.10
35127;DHT22;21300;52.006;5.798;2023-03-01T21:41:21;2.50;99.20
35127;DHT22;21300;52.006;5.798;2023-03-01T21:46:34;2.50;99.20
35127;DHT22;21300;52.006;5.798;2023-03-01T21:49:04;2.50;99.00
35127;DHT22;21300;52.006;5.798;2023-03-01T21:51:30;2.50;99.20
35127;DHT22;21300;52.006;5.798;2023-03-01T21:53:57;2.50;99.10
35127;DHT22;21300;52.006;5.798;2023-03-01T21:56:24;2.40;98.80
35127;DHT22;21300;52.006;5.798;2023-03-01T21:58:51;2.40;99.00
35127;DHT22;21300;52.006;5.798;2023-03-01T22:01:19;2.40;99.10
35127;DHT22;21300;52.006;5.798;2023-03-01T22:03:46;2.40;98.80
35127;DHT22;21300;52.006;5.798;2023-03-01T22:06:20;2.40;98.50